KA4TEV Fort Meyers FL US current weather conditions

sailwx.info

Wind from 084 at 1 knots gusting 4

Air temperature 22.8° C
Dewpoint 22.3° C

Last reported at 2019-Jul-21 23:04 UTC.
Time now 2019-Jul-21 23:17 UTC

Location: N 26°31' W 081°57'.
View on Google Maps.

See reports from other nearby stations

  
Tides and Currents Weather Stations Pressure Air Temp Water Temp Dewpoint Dewpoint Depression Visibility Wind Speed Wind Dir Waves Ship Positions
date/time (UTC)wind fromknots sea level pressurealtimeterstation pressurevisibilityair tempwater tempwave heightnotes
2019-Jul-21 23:04 084 1 gusting 4 22.8
2019-Jul-21 22:59 150 0 gusting 2 22.8
2019-Jul-21 22:54 161 0 gusting 2 22.8
2019-Jul-21 22:49 139 22.8
2019-Jul-21 22:44 110 0 gusting 3 22.8
2019-Jul-21 22:39 148 0 gusting 3 22.2
2019-Jul-21 22:34 133 0 gusting 4 22.2
2019-Jul-21 22:29 133 0 gusting 4 22.2
2019-Jul-21 22:24 169 0 gusting 2 22.2
2019-Jul-21 22:19 182 22.2
2019-Jul-21 22:14 152 1 gusting 8 21.7
2019-Jul-21 22:09 101 2 gusting 10 21.7
2019-Jul-21 22:04 055 5 gusting 10 21.7
2019-Jul-21 21:59 049 6 gusting 19 21.7
2019-Jul-21 21:54 063 8 gusting 23 21.7
2019-Jul-21 21:49 075 13 gusting 23 22.2
2019-Jul-21 21:44 084 7 gusting 19 23.9
2019-Jul-21 21:39 109 9 gusting 19 25.0
2019-Jul-21 21:34 108 5 gusting 19 26.7
2019-Jul-21 21:29 126 7 gusting 20 28.3
2019-Jul-21 21:24 148 10 gusting 17 31.7
2019-Jul-21 21:19 260 0 gusting 6 32.2
2019-Jul-21 21:14 225 1 gusting 6 32.2
2019-Jul-21 21:09 276 4 gusting 6 32.2
2019-Jul-21 21:04 254 3 gusting 6 32.2
2019-Jul-21 20:59 214 4 gusting 8 31.7
2019-Jul-21 20:54 263 3 gusting 8 31.7
2019-Jul-21 20:49 218 4 gusting 7 31.7
2019-Jul-21 20:44 227 4 gusting 7 32.2
2019-Jul-21 20:39 246 4 gusting 7 32.2
2019-Jul-21 20:34 276 3 gusting 6 31.7
2019-Jul-21 20:29 233 4 gusting 8 31.7
2019-Jul-21 20:24 238 3 gusting 9 31.7
2019-Jul-21 20:19 224 2 gusting 9 31.7
2019-Jul-21 20:14 222 4 gusting 8 31.7
2019-Jul-21 20:09 246 4 gusting 9 31.7
2019-Jul-21 20:04 227 5 gusting 13 31.7
2019-Jul-21 19:59 194 6 gusting 12 31.7
2019-Jul-21 19:54 257 5 gusting 10 31.7
2019-Jul-21 19:49 258 6 gusting 14 31.7
2019-Jul-21 19:44 216 6 gusting 14 31.7
2019-Jul-21 19:39 198 6 gusting 11 31.7
2019-Jul-21 19:34 258 5 gusting 11 32.2
2019-Jul-21 19:29 246 4 gusting 7 31.7
2019-Jul-21 19:24 244 4 gusting 8 31.7
2019-Jul-21 19:19 183 5 gusting 10 31.7
2019-Jul-21 19:14 190 3 gusting 10 31.7
2019-Jul-21 19:09 190 4 gusting 9 31.7
2019-Jul-21 19:04 234 5 gusting 9 31.7
2019-Jul-21 18:59 200 4 gusting 8 32.2
2019-Jul-21 18:54 231 5 gusting 8 31.7
2019-Jul-21 18:49 171 2 gusting 8 31.7
2019-Jul-21 18:44 269 4 gusting 8 31.7
2019-Jul-21 18:39 232 3 gusting 8 31.1
2019-Jul-21 18:34 252 5 gusting 8 31.7
2019-Jul-21 18:29 260 3 gusting 8 31.7
2019-Jul-21 18:24 250 4 gusting 8 31.7
2019-Jul-21 18:19 262 5 gusting 8 31.7
2019-Jul-21 18:14 230 2 gusting 7 31.7
2019-Jul-21 18:09 251 3 gusting 9 31.7
2019-Jul-21 18:04 243 5 gusting 9 31.7
2019-Jul-21 17:59 236 4 gusting 8 31.7
2019-Jul-21 17:54 242 5 gusting 8 31.7
2019-Jul-21 17:49 234 3 gusting 7 32.2
2019-Jul-21 17:44 225 2 gusting 7 32.2
2019-Jul-21 17:39 234 5 gusting 7 32.2
2019-Jul-21 17:34 216 3 gusting 6 32.2
2019-Jul-21 17:29 253 0 gusting 6 32.2
2019-Jul-21 17:24 221 2 gusting 7 32.2
2019-Jul-21 17:19 217 4 gusting 7 32.2
2019-Jul-21 17:14 246 1 gusting 5 32.2
2019-Jul-21 17:09 250 2 gusting 5 32.2
2019-Jul-21 17:04 256 0 gusting 5 32.2
2019-Jul-21 16:59 201 1 gusting 5 32.2
2019-Jul-21 16:54 156 2 gusting 5 32.2
2019-Jul-21 16:49 194 3 gusting 5 32.2
2019-Jul-21 16:44 164 1 gusting 4 32.2
2019-Jul-21 16:39 136 2 gusting 4 32.2
2019-Jul-21 16:34 221 1 gusting 5 32.2
2019-Jul-21 16:29 201 1 gusting 5 32.2
2019-Jul-21 16:24 152 1 gusting 5 31.7
2019-Jul-21 16:19 139 2 gusting 5 31.7
2019-Jul-21 16:14 203 2 gusting 5 31.7
2019-Jul-21 16:09 163 0 gusting 5 31.7
2019-Jul-21 16:04 144 2 gusting 5 31.7
2019-Jul-21 15:59 183 1 gusting 3 32.2
2019-Jul-21 15:54 191 1 gusting 2 32.2
2019-Jul-21 15:49 180 31.7
2019-Jul-21 15:44 148 2 gusting 4 31.7
2019-Jul-21 15:39 076 1 gusting 4 31.7
2019-Jul-21 15:34 121 2 gusting 4 31.7
2019-Jul-21 15:29 131 0 gusting 3 31.7
2019-Jul-21 15:24 112 2 gusting 4 31.7
2019-Jul-21 15:19 155 1 gusting 4 31.7
2019-Jul-21 15:14 176 0 gusting 4 31.1
2019-Jul-21 15:09 142 1 gusting 4 31.1
2019-Jul-21 15:04 147 2 gusting 5 31.1
2019-Jul-21 14:59 163 0 gusting 5 30.6
2019-Jul-21 14:54 175 2 gusting 6 30.6
2019-Jul-21 14:49 096 2 gusting 6 30.6
2019-Jul-21 14:44 155 1 gusting 3 30.6
2019-Jul-21 14:39 122 1 gusting 6 30.6
2019-Jul-21 14:34 073 2 gusting 6 30.6
2019-Jul-21 14:29 102 2 gusting 6 30.6
2019-Jul-21 14:24 098 2 gusting 5 30.6
2019-Jul-21 14:19 156 1 gusting 6 30.0
2019-Jul-21 14:14 164 1 gusting 4 30.0
2019-Jul-21 14:09 142 2 gusting 5 30.0
2019-Jul-21 14:04 144 2 gusting 6 30.0
2019-Jul-21 13:59 088 1 gusting 4 30.0
2019-Jul-21 13:54 123 1 gusting 3 30.0
2019-Jul-21 13:49 160 0 gusting 6 30.0
2019-Jul-21 13:44 148 1 gusting 6 29.4
2019-Jul-21 13:39 115 1 gusting 5 29.4
2019-Jul-21 13:34 148 2 gusting 4 29.4
2019-Jul-21 13:29 142 2 gusting 5 28.9
2019-Jul-21 13:24 150 2 gusting 5 28.9
2019-Jul-21 13:19 140 2 gusting 6 28.9
2019-Jul-21 13:14 169 2 gusting 5 28.3
2019-Jul-21 13:09 144 3 gusting 5 28.3
2019-Jul-21 13:04 121 1 gusting 3 28.3
2019-Jul-21 12:59 129 1 gusting 3 27.8
2019-Jul-21 12:54 105 0 gusting 4 27.8
2019-Jul-21 12:49 099 1 gusting 3 27.2
2019-Jul-21 12:44 114 1 gusting 3 27.2
2019-Jul-21 12:39 144 1 gusting 3 26.7
2019-Jul-21 12:34 115 1 gusting 5 26.7
2019-Jul-21 12:29 101 1 gusting 5 26.1
2019-Jul-21 12:24 099 0 gusting 3 26.1
2019-Jul-21 12:19 106 0 gusting 6 26.1
2019-Jul-21 12:14 111 1 gusting 6 26.1
2019-Jul-21 12:09 094 1 gusting 4 26.1
2019-Jul-21 12:04 107 0 gusting 3 26.1
2019-Jul-21 11:59 115 2 gusting 5 26.1
2019-Jul-21 11:54 056 1 gusting 3 25.6
2019-Jul-21 11:49 104 0 gusting 2 25.6
2019-Jul-21 11:44 130 25.0
2019-Jul-21 11:39 126 25.0
2019-Jul-21 11:34 126 0 gusting 4 24.4
2019-Jul-21 11:29 099 1 gusting 4 24.4
2019-Jul-21 11:24 103 0 gusting 2 23.9
2019-Jul-21 11:19 103 23.9
2019-Jul-21 11:14 103 0 gusting 2 23.9
2019-Jul-21 11:09 104 0 gusting 1 23.9
2019-Jul-21 11:04 103 0 gusting 1 23.9
2019-Jul-21 10:59 103 23.9
2019-Jul-21 10:54 103 23.9
2019-Jul-21 10:49 103 0 gusting 2 23.9
2019-Jul-21 10:44 104 23.9
2019-Jul-21 10:39 104 0 gusting 1 23.9
2019-Jul-21 10:34 105 23.9
2019-Jul-21 10:29 105 23.9
2019-Jul-21 10:24 105 23.3
2019-Jul-21 10:19 104 0 gusting 0 23.3
2019-Jul-21 10:14 104 23.3
2019-Jul-21 10:09 104 23.3
2019-Jul-21 10:04 103 23.3
2019-Jul-21 09:59 103 23.3
2019-Jul-21 09:54 104 23.3
2019-Jul-21 09:49 105 23.3
2019-Jul-21 09:44 105 23.3
2019-Jul-21 09:39 105 23.3
2019-Jul-21 09:34 104 23.3
2019-Jul-21 09:29 104 23.3
2019-Jul-21 09:24 104 23.3
2019-Jul-21 09:19 104 23.9
2019-Jul-21 09:14 104 23.9
2019-Jul-21 09:09 104 23.9
2019-Jul-21 09:04 105 23.9
2019-Jul-21 08:59 105 23.9
2019-Jul-21 08:54 105 23.9
2019-Jul-21 08:49 105 0 gusting 1 23.9
2019-Jul-21 08:44 105 23.9
2019-Jul-21 08:39 105 23.9
2019-Jul-21 08:34 105 0 gusting 1 23.9
2019-Jul-21 08:29 105 23.9
2019-Jul-21 08:24 105 23.9
2019-Jul-21 08:19 105 23.9
2019-Jul-21 08:14 105 0 gusting 1 23.9
2019-Jul-21 08:09 105 23.9
2019-Jul-21 08:04 105 23.9
2019-Jul-21 07:59 105 23.9
2019-Jul-21 07:54 099 1 gusting 2 23.9
2019-Jul-21 07:49 104 23.9
2019-Jul-21 07:44 104 0 gusting 2 23.9
2019-Jul-21 07:39 109 0 gusting 1 23.9
2019-Jul-21 07:34 110 23.9
2019-Jul-21 07:29 104 23.9
2019-Jul-21 07:24 103 23.9
2019-Jul-21 07:19 103 23.9
2019-Jul-21 07:14 103 23.9
2019-Jul-21 07:09 103 23.9
2019-Jul-21 07:04 104 23.9
2019-Jul-21 06:59 103 23.9
2019-Jul-21 06:54 103 23.9
2019-Jul-21 06:49 103 0 gusting 1 23.9
2019-Jul-21 06:44 107 23.9
2019-Jul-21 06:39 107 0 gusting 2 23.9
2019-Jul-21 06:34 062 23.9
2019-Jul-21 06:29 094 23.9
2019-Jul-21 06:24 091 23.9
2019-Jul-21 06:19 092 0 gusting 1 23.9
2019-Jul-21 06:14 091 23.9
2019-Jul-21 06:09 092 0 gusting 2 23.9
2019-Jul-21 06:04 090 23.9
2019-Jul-21 05:59 090 0 gusting 2 23.9
2019-Jul-21 05:54 092 23.9
2019-Jul-21 05:49 092 0 gusting 2 23.9
2019-Jul-21 05:44 093 0 gusting 2 23.9
2019-Jul-21 05:39 093 1 gusting 2 23.9
2019-Jul-21 05:34 093 0 gusting 1 23.9
2019-Jul-21 05:29 093 23.9
2019-Jul-21 05:24 093 0 gusting 1 23.9
2019-Jul-21 05:19 092 23.9
2019-Jul-21 05:14 093 23.9
2019-Jul-21 05:09 093 23.9
2019-Jul-21 05:04 092 23.9
2019-Jul-21 04:59 093 0 gusting 2 23.9
2019-Jul-21 04:54 093 0 gusting 1 23.9
2019-Jul-21 04:49 093 23.9
2019-Jul-21 04:44 093 0 gusting 3 23.9
2019-Jul-21 04:39 088 1 gusting 3 23.9
2019-Jul-21 04:34 085 0 gusting 4 23.9
2019-Jul-21 04:29 090 1 gusting 4 23.9
2019-Jul-21 04:24 051 1 gusting 2 23.9
2019-Jul-21 04:19 084 1 gusting 3 23.9
2019-Jul-21 04:14 067 1 gusting 3 23.9
2019-Jul-21 04:09 056 0 gusting 2 23.9
2019-Jul-21 04:04 072 0 gusting 1 23.9
2019-Jul-21 03:59 072 0 gusting 1 23.9
2019-Jul-21 03:54 069 0 gusting 2 23.9
2019-Jul-21 03:49 069 1 gusting 2 23.9
2019-Jul-21 03:44 074 0 gusting 3 23.9
2019-Jul-21 03:39 052 0 gusting 3 23.9
2019-Jul-21 03:34 048 1 gusting 4 23.9
2019-Jul-21 03:29 057 1 gusting 4 23.9
2019-Jul-21 03:24 058 0 gusting 2 23.9
2019-Jul-21 03:19 051 0 gusting 2 23.9
2019-Jul-21 03:14 054 0 gusting 3 23.9
2019-Jul-21 03:09 070 1 gusting 5 24.4
2019-Jul-21 03:04 060 2 gusting 5 24.4
2019-Jul-21 02:59 065 2 gusting 5 24.4
2019-Jul-21 02:54 064 1 gusting 4 24.4
2019-Jul-21 02:49 062 1 gusting 3 24.4
2019-Jul-21 02:44 090 1 gusting 5 24.4
2019-Jul-21 02:39 066 2 gusting 5 24.4
2019-Jul-21 02:34 069 1 gusting 6 24.4
2019-Jul-21 02:29 054 2 gusting 6 24.4
2019-Jul-21 02:24 083 1 gusting 4 24.4
2019-Jul-21 02:19 044 2 gusting 4 24.4
2019-Jul-21 02:14 069 1 gusting 6 24.4
2019-Jul-21 02:09 061 2 gusting 6 24.4
2019-Jul-21 02:04 078 1 gusting 4 24.4
2019-Jul-21 01:59 084 2 gusting 3 24.4
2019-Jul-21 01:54 067 2 gusting 3 24.4
2019-Jul-21 01:49 056 1 gusting 3 24.4
2019-Jul-21 01:44 072 1 gusting 3 24.4
2019-Jul-21 01:39 074 1 gusting 3 24.4
2019-Jul-21 01:34 097 0 gusting 1 24.4
2019-Jul-21 01:29 097 24.4
2019-Jul-21 01:24 096 0 gusting 2 24.4
2019-Jul-21 01:19 096 1 gusting 4 25.0
2019-Jul-21 01:14 087 1 gusting 4 24.4
2019-Jul-21 01:09 080 1 gusting 2 24.4
2019-Jul-21 01:04 040 25.0
2019-Jul-21 00:59 040 0 gusting 0 25.0
2019-Jul-21 00:54 040 25.0
2019-Jul-21 00:49 040 25.0
2019-Jul-21 00:44 040 25.0
2019-Jul-21 00:39 015 25.0
2019-Jul-21 00:34 015 25.0
2019-Jul-21 00:29 015 25.0
2019-Jul-21 00:24 015 25.0
2019-Jul-21 00:19 015 25.6
2019-Jul-21 00:14 015 25.6
2019-Jul-21 00:09 015 0 gusting 1 25.6
2019-Jul-21 00:04 015 25.6
2019-Jul-20 23:59 015 25.6
2019-Jul-20 23:54 038 25.6
2019-Jul-20 23:49 038 25.6
2019-Jul-20 23:44 038 25.6
2019-Jul-20 23:39 037 25.6
2019-Jul-20 23:34 037 25.6
2019-Jul-20 23:29 028 0 gusting 3 25.6
2019-Jul-20 23:24 032 1 gusting 5 25.6
2019-Jul-20 23:19 048 1 gusting 7 25.6
2019-Jul-20 23:14 052 4 gusting 7 25.6
2019-Jul-20 23:09 038 1 gusting 3 25.6
2019-Jul-20 23:04 094 0 gusting 2 25.6
2019-Jul-20 22:59 096 0 gusting 2 25.6
2019-Jul-20 22:54 095 0 gusting 1 25.6
2019-Jul-20 22:49 096 25.6
2019-Jul-20 22:44 095 25.6
2019-Jul-20 22:39 096 0 gusting 4 25.0
2019-Jul-20 22:34 099 1 gusting 4 25.0
2019-Jul-20 22:29 109 0 gusting 2 25.0
2019-Jul-20 22:24 126 0 gusting 2 25.0
2019-Jul-20 22:19 077 0 gusting 4 25.0
2019-Jul-20 22:14 080 2 gusting 6 24.4
2019-Jul-20 22:09 053 2 gusting 6 24.4
2019-Jul-20 22:04 080 3 gusting 6 24.4
2019-Jul-20 21:59 075 2 gusting 5 24.4
2019-Jul-20 21:54 086 1 gusting 3 24.4
2019-Jul-20 21:49 067 1 gusting 4 24.4
2019-Jul-20 21:44 046 2 gusting 4 24.4
2019-Jul-20 21:39 067 0 gusting 1 24.4
2019-Jul-20 21:34 067 0 gusting 2 24.4
2019-Jul-20 21:29 067 0 gusting 2 23.9
2019-Jul-20 21:24 113 1 gusting 2 23.9
2019-Jul-20 21:19 134 0 gusting 2 23.9
2019-Jul-20 21:14 215 23.9
2019-Jul-20 21:09 214 23.9
2019-Jul-20 21:04 215 23.9
2019-Jul-20 20:59 214 0 gusting 2 23.9
2019-Jul-20 20:54 212 0 gusting 2 23.9
2019-Jul-20 20:49 247 0 gusting 2 23.9
2019-Jul-20 20:44 259 23.9
2019-Jul-20 20:39 259 23.9
2019-Jul-20 20:34 259 23.9
2019-Jul-20 20:29 259 23.9
2019-Jul-20 20:24 259 23.3
2019-Jul-20 20:19 259 23.3
2019-Jul-20 20:14 285 23.3
2019-Jul-20 20:09 286 0 gusting 2 23.3
2019-Jul-20 20:04 273 0 gusting 4 23.3
2019-Jul-20 19:59 288 0 gusting 5 23.3
2019-Jul-20 19:54 286 2 gusting 5 23.9
2019-Jul-20 19:49 300 2 gusting 4 23.9
2019-Jul-20 19:44 263 1 gusting 4 23.9
2019-Jul-20 19:39 251 2 gusting 5 24.4
2019-Jul-20 19:34 194 1 gusting 5 24.4
2019-Jul-20 19:29 268 1 gusting 3 25.0
2019-Jul-20 19:24 275 0 gusting 2 25.0
2019-Jul-20 19:19 234 25.0
2019-Jul-20 19:14 223 1 gusting 7 25.0
2019-Jul-20 19:09 217 3 gusting 7 25.6
2019-Jul-20 19:04 217 2 gusting 13 26.1
2019-Jul-20 18:59 081 7 gusting 18 27.2
2019-Jul-20 18:54 148 8 gusting 18 28.3
2019-Jul-20 18:49 066 9 gusting 18 30.6
2019-Jul-20 18:44 123 5 gusting 12 32.2
2019-Jul-20 18:39 111 1 gusting 4 32.8
2019-Jul-20 18:34 074 32.8
2019-Jul-20 18:29 043 32.8
2019-Jul-20 18:24 041 1 gusting 3 32.8
2019-Jul-20 18:19 315 1 gusting 5 32.8
2019-Jul-20 18:14 303 2 gusting 5 33.3
2019-Jul-20 18:09 288 2 gusting 4 33.3
2019-Jul-20 18:04 273 2 gusting 5 33.3
2019-Jul-20 17:59 052 2 gusting 5 33.3
2019-Jul-20 17:54 145 2 gusting 4 33.3
2019-Jul-20 17:49 210 2 gusting 5 33.3
2019-Jul-20 17:44 155 1 gusting 5 33.3
2019-Jul-20 17:39 117 0 gusting 6 33.3
2019-Jul-20 17:34 030 2 gusting 8 33.3
2019-Jul-20 17:29 079 4 gusting 8 33.3
2019-Jul-20 17:24 087 32.8
2019-Jul-20 17:19 106 2 gusting 4 32.8
2019-Jul-20 17:14 109 2 gusting 4 32.2
2019-Jul-20 17:09 064 2 gusting 4 32.2
2019-Jul-20 17:04 095 1 gusting 4 32.8
2019-Jul-20 16:59 144 2 gusting 6 32.8
2019-Jul-20 16:54 145 1 gusting 8 32.8
2019-Jul-20 16:49 105 3 gusting 8 32.8
2019-Jul-20 16:44 061 1 gusting 6 32.8
2019-Jul-20 16:39 079 2 gusting 6 32.8
2019-Jul-20 16:34 132 2 gusting 6 32.8
2019-Jul-20 16:29 150 0 gusting 6 32.8
2019-Jul-20 16:24 132 3 gusting 6 32.8
2019-Jul-20 16:19 161 1 gusting 6 32.8
2019-Jul-20 16:14 141 3 gusting 6 32.2
2019-Jul-20 16:09 046 3 gusting 6 32.2
2019-Jul-20 16:04 086 3 gusting 8 32.2
2019-Jul-20 15:59 093 6 gusting 8 32.2
2019-Jul-20 15:54 126 1 gusting 6 32.2
2019-Jul-20 15:49 083 3 gusting 6 32.2
2019-Jul-20 15:44 141 2 gusting 6 31.7
2019-Jul-20 15:39 057 2 gusting 4 31.7
2019-Jul-20 15:34 123 0 gusting 3 31.1
2019-Jul-20 15:29 132 1 gusting 6 31.1
2019-Jul-20 15:24 098 4 gusting 6 31.7
2019-Jul-20 15:19 113 1 gusting 6 31.7
2019-Jul-20 15:14 064 3 gusting 6 31.1
2019-Jul-20 15:09 153 0 gusting 3 31.1
2019-Jul-20 15:04 149 0 gusting 2 31.1
2019-Jul-20 14:59 142 0 gusting 6 31.1
2019-Jul-20 14:54 078 3 gusting 8 31.1
2019-Jul-20 14:49 083 4 gusting 8 31.1
2019-Jul-20 14:44 092 2 gusting 7 31.1
2019-Jul-20 14:39 072 1 gusting 6 31.1
2019-Jul-20 14:34 160 1 gusting 5 31.1
2019-Jul-20 14:29 130 2 gusting 6 31.1
2019-Jul-20 14:24 092 2 gusting 6 30.6
2019-Jul-20 14:19 112 1 gusting 6 30.6
2019-Jul-20 14:14 122 3 gusting 7 30.6
2019-Jul-20 14:09 104 4 gusting 7 30.6
2019-Jul-20 14:04 107 2 gusting 5 30.6
2019-Jul-20 13:59 117 2 gusting 6 30.0
2019-Jul-20 13:54 150 2 gusting 6 30.0
2019-Jul-20 13:49 137 0 gusting 5 30.0
2019-Jul-20 13:44 136 2 gusting 6 29.4
2019-Jul-20 13:39 080 2 gusting 6 29.4
2019-Jul-20 13:34 094 4 gusting 6 29.4
2019-Jul-20 13:29 094 2 gusting 4 28.9
2019-Jul-20 13:24 113 3 gusting 5 28.9
2019-Jul-20 13:19 125 2 gusting 6 28.9
2019-Jul-20 13:14 113 3 gusting 6 28.9
2019-Jul-20 13:09 161 2 gusting 4 28.9
2019-Jul-20 13:04 132 0 gusting 2 28.3
2019-Jul-20 12:59 122 0 gusting 7 28.3
2019-Jul-20 12:54 125 0 gusting 7 27.8
2019-Jul-20 12:49 101 2 gusting 4 27.8
2019-Jul-20 12:44 094 1 gusting 4 27.2
2019-Jul-20 12:39 106 1 gusting 5 27.2
2019-Jul-20 12:34 092 2 gusting 5 26.7
2019-Jul-20 12:29 102 1 gusting 4 26.1
2019-Jul-20 12:24 084 1 gusting 2 26.1
2019-Jul-20 12:19 109 0 gusting 4 26.1
2019-Jul-20 12:14 095 2 gusting 4 26.1
2019-Jul-20 12:09 092 2 gusting 4 25.6
2019-Jul-20 12:04 083 2 gusting 4 25.6
2019-Jul-20 11:59 101 2 gusting 4 25.6
2019-Jul-20 11:54 109 1 gusting 2 25.0
2019-Jul-20 11:49 101 0 gusting 2 25.0
2019-Jul-20 11:44 101 0 gusting 2 25.0
2019-Jul-20 11:39 101 0 gusting 1 25.0
2019-Jul-20 11:34 101 24.4
2019-Jul-20 11:29 101 24.4
2019-Jul-20 11:24 101 0 gusting 2 23.9
2019-Jul-20 11:19 101 0 gusting 2 23.9
2019-Jul-20 11:14 101 1 gusting 2 23.9
2019-Jul-20 11:09 101 23.9
2019-Jul-20 11:04 101 23.9
2019-Jul-20 10:59 101 23.9
2019-Jul-20 10:54 101 23.9
2019-Jul-20 10:49 101 0 gusting 1 23.9
2019-Jul-20 10:44 101 0 gusting 2 23.9
2019-Jul-20 10:39 101 0 gusting 2 23.9
2019-Jul-20 10:34 104 23.9
2019-Jul-20 10:29 103 0 gusting 2 23.9
2019-Jul-20 10:24 104 23.9
2019-Jul-20 10:19 104 23.9
2019-Jul-20 10:14 104 23.9
2019-Jul-20 10:09 104 0 gusting 1 23.9
2019-Jul-20 10:04 104 23.9
2019-Jul-20 09:59 104 23.9
2019-Jul-20 09:54 104 0 gusting 2 23.9
2019-Jul-20 09:49 108 23.9
2019-Jul-20 09:44 108 23.9
2019-Jul-20 09:39 107 23.9
2019-Jul-20 09:34 107 23.9
2019-Jul-20 09:29 107 23.9
2019-Jul-20 09:24 107 0 gusting 1 23.9
2019-Jul-20 09:19 107 23.9
2019-Jul-20 09:14 108 0 gusting 2 23.9
2019-Jul-20 09:09 107 0 gusting 2 23.9
2019-Jul-20 09:04 099 23.9
2019-Jul-20 08:59 100 23.9
2019-Jul-20 08:54 099 23.9
2019-Jul-20 08:49 099 0 gusting 1 23.9
2019-Jul-20 08:44 105 0 gusting 2 23.9
2019-Jul-20 08:39 087 23.9
2019-Jul-20 08:34 088 0 gusting 4 23.9
2019-Jul-20 08:29 097 23.9
2019-Jul-20 08:24 097 0 gusting 1 23.9
2019-Jul-20 08:19 096 23.9
2019-Jul-20 08:14 097 0 gusting 1 23.9
2019-Jul-20 08:09 099 23.9
2019-Jul-20 08:04 098 23.9
2019-Jul-20 07:59 090 23.9
2019-Jul-20 07:54 090 0 gusting 2 23.9
2019-Jul-20 07:49 090 0 gusting 1 23.9
2019-Jul-20 07:44 090 1 gusting 2 23.9
2019-Jul-20 07:39 088 0 gusting 1 23.9
2019-Jul-20 07:34 088 23.9
2019-Jul-20 07:29 088 0 gusting 1 23.9
2019-Jul-20 07:24 088 0 gusting 3 23.9
2019-Jul-20 07:19 088 1 gusting 3 23.9
2019-Jul-20 07:14 072 0 gusting 2 23.9
2019-Jul-20 07:09 069 0 gusting 3 23.9
2019-Jul-20 07:04 067 0 gusting 3 23.9
2019-Jul-20 06:59 053 0 gusting 1 23.9
2019-Jul-20 06:54 065 23.9
2019-Jul-20 06:49 064 0 gusting 2 23.9
2019-Jul-20 06:44 070 0 gusting 1 23.9
2019-Jul-20 06:39 071 23.9
2019-Jul-20 06:34 071 0 gusting 2 23.9
2019-Jul-20 06:29 076 0 gusting 2 23.9
2019-Jul-20 06:24 054 0 gusting 2 23.9
2019-Jul-20 06:19 065 0 gusting 1 23.9
2019-Jul-20 06:14 064 0 gusting 2 23.9
2019-Jul-20 06:09 065 0 gusting 2 23.9
2019-Jul-20 06:04 059 24.4
2019-Jul-20 05:59 059 23.9
2019-Jul-20 05:54 059 24.4
2019-Jul-20 05:49 056 0 gusting 3 24.4
2019-Jul-20 05:44 069 1 gusting 3 24.4
2019-Jul-20 05:39 073 0 gusting 2 23.9
2019-Jul-20 05:34 094 0 gusting 2 23.9
2019-Jul-20 05:29 089 24.4
2019-Jul-20 05:24 088 0 gusting 1 23.9
2019-Jul-20 05:19 088 24.4
2019-Jul-20 05:14 088 0 gusting 2 24.4
2019-Jul-20 05:09 074 0 gusting 4 24.4
2019-Jul-20 05:04 056 1 gusting 4 24.4
2019-Jul-20 04:59 084 1 gusting 2 24.4
2019-Jul-20 04:54 087 1 gusting 2 24.4
2019-Jul-20 04:49 090 0 gusting 2 24.4
2019-Jul-20 04:44 086 24.4
2019-Jul-20 04:39 086 0 gusting 1 24.4
2019-Jul-20 04:34 086 24.4
2019-Jul-20 04:29 086 0 gusting 4 24.4
2019-Jul-20 04:24 090 24.4
2019-Jul-20 04:19 090 0 gusting 2 24.4
2019-Jul-20 04:14 094 0 gusting 2 24.4
2019-Jul-20 04:09 094 0 gusting 2 24.4
2019-Jul-20 04:04 094 0 gusting 2 24.4
2019-Jul-20 03:59 095 24.4
2019-Jul-20 03:54 095 24.4
2019-Jul-20 03:49 096 0 gusting 2 24.4
2019-Jul-20 03:44 091 24.4
2019-Jul-20 03:39 087 1 gusting 4 24.4
2019-Jul-20 03:34 091 0 gusting 1 24.4
2019-Jul-20 03:29 092 24.4
2019-Jul-20 03:24 077 23.9
2019-Jul-20 03:19 080 0 gusting 2 23.9
2019-Jul-20 03:14 082 1 gusting 2 23.9
2019-Jul-20 03:09 061 0 gusting 1 23.9
2019-Jul-20 03:04 061 0 gusting 3 23.9
2019-Jul-20 02:59 060 1 gusting 3 23.9
2019-Jul-20 02:54 091 0 gusting 1 23.9
2019-Jul-20 02:49 092 23.9
2019-Jul-20 02:44 092 23.9
2019-Jul-20 02:39 083 23.9
2019-Jul-20 02:34 084 0 gusting 3 24.4
2019-Jul-20 02:29 070 1 gusting 3 24.4
2019-Jul-20 02:24 069 1 gusting 3 24.4
2019-Jul-20 02:19 092 1 gusting 4 24.4
2019-Jul-20 02:14 081 1 gusting 6 24.4
2019-Jul-20 02:09 065 3 gusting 6 24.4
2019-Jul-20 02:04 075 1 gusting 4 24.4
2019-Jul-20 01:59 085 24.4
2019-Jul-20 01:54 087 1 gusting 6 24.4
2019-Jul-20 01:49 055 3 gusting 6 24.4
2019-Jul-20 01:44 095 1 gusting 4 24.4
2019-Jul-20 01:39 040 2 gusting 4 24.4
2019-Jul-20 01:34 087 1 gusting 3 24.4
2019-Jul-20 01:29 079 0 gusting 3 24.4
2019-Jul-20 01:24 074 0 gusting 6 24.4
2019-Jul-20 01:19 045 2 gusting 6 24.4
2019-Jul-20 01:14 063 1 gusting 6 24.4
2019-Jul-20 01:09 095 2 gusting 6 23.9
2019-Jul-20 01:04 051 1 gusting 2 23.9
2019-Jul-20 00:59 073 23.9
2019-Jul-20 00:54 073 23.9
2019-Jul-20 00:49 073 23.9
2019-Jul-20 00:44 073 23.9
2019-Jul-20 00:39 073 23.9
2019-Jul-20 00:34 071 23.9
2019-Jul-20 00:29 071 0 gusting 2 23.9
2019-Jul-20 00:24 072 1 gusting 2 23.9
2019-Jul-20 00:19 088 1 gusting 3 23.9
2019-Jul-20 00:14 100 1 gusting 3 23.9
2019-Jul-20 00:09 099 0 gusting 2 23.9
2019-Jul-20 00:04 111 0 gusting 2 23.9
2019-Jul-19 23:59 115 0 gusting 2 23.9
2019-Jul-19 23:54 149 23.9
2019-Jul-19 23:49 156 23.9
2019-Jul-19 23:44 156 1 gusting 4 23.9
2019-Jul-19 23:39 126 0 gusting 2 23.9
2019-Jul-19 23:34 083 23.9
2019-Jul-19 23:29 083 23.9
2019-Jul-19 23:24 083 23.9
2019-Jul-19 23:19 083 0 gusting 2 23.9
2019-Jul-19 23:14 083 1 gusting 4 23.9
2019-Jul-19 23:09 084 0 gusting 4 23.9
2019-Jul-19 23:04 082 1 gusting 4 24.4